sensor_id;sensor_type;location;lat;lon;timestamp;pressure;altitude;pressure_sealevel;temperature;humidity
25869;BME280;13688;53.154;18.136;2022-11-15T00:03:29;101232.38;;;4.84;100.00
25869;BME280;13688;53.154;18.136;2022-11-15T00:08:52;101235.16;;;4.81;100.00
25869;BME280;13688;53.154;18.136;2022-11-15T00:14:14;101236.02;;;4.81;100.00
25869;BME280;13688;53.154;18.136;2022-11-15T00:19:36;101227.09;;;4.82;100.00
25869;BME280;13688;53.154;18.136;2022-11-15T00:24:59;101233.16;;;4.86;100.00
25869;BME280;13688;53.154;18.136;2022-11-15T00:30:21;101238.48;;;4.86;100.00
25869;BME280;13688;53.154;18.136;2022-11-15T00:35:44;101227.83;;;4.86;100.00
25869;BME280;13688;53.154;18.136;2022-11-15T00:41:09;101212.78;;;4.85;100.00
25869;BME280;13688;53.154;18.136;2022-11-15T00:46:32;101212.70;;;4.86;100.00
25869;BME280;13688;53.154;18.136;2022-11-15T00:51:54;101205.92;;;4.79;100.00
25869;BME280;13688;53.154;18.136;2022-11-15T00:57:16;101199.02;;;4.75;100.00
25869;BME280;13688;53.154;18.136;2022-11-15T01:02:40;101189.30;;;4.74;100.00
25869;BME280;13688;53.154;18.136;2022-11-15T01:08:02;101176.92;;;4.73;100.00
25869;BME280;13688;53.154;18.136;2022-11-15T01:13:31;101177.91;;;4.71;100.00
25869;BME280;13688;53.154;18.136;2022-11-15T01:18:54;101170.14;;;4.66;100.00
25869;BME280;13688;53.154;18.136;2022-11-15T01:24:18;101159.61;;;4.63;100.00
25869;BME280;13688;53.154;18.136;2022-11-15T01:29:40;101159.75;;;4.60;100.00
25869;BME280;13688;53.154;18.136;2022-11-15T01:35:03;101161.03;;;4.51;100.00
25869;BME280;13688;53.154;18.136;2022-11-15T01:40:25;101147.80;;;4.50;100.00
25869;BME280;13688;53.154;18.136;2022-11-15T01:45:49;101146.41;;;4.41;100.00
25869;BME280;13688;53.154;18.136;2022-11-15T01:51:15;101148.29;;;4.39;100.00
25869;BME280;13688;53.154;18.136;2022-11-15T01:56:42;101133.45;;;4.34;100.00
25869;BME280;13688;53.154;18.136;2022-11-15T02:02:06;101129.43;;;4.25;100.00
25869;BME280;13688;53.154;18.136;2022-11-15T02:07:28;101119.64;;;4.25;100.00
25869;BME280;13688;53.154;18.136;2022-11-15T02:12:52;101122.35;;;4.24;100.00
25869;BME280;13688;53.154;18.136;2022-11-15T02:18:20;101110.80;;;4.25;100.00
25869;BME280;13688;53.154;18.136;2022-11-15T02:24:07;101106.67;;;4.18;100.00
25869;BME280;13688;53.154;18.136;2022-11-15T02:36:09;101107.09;;;4.09;100.00
25869;BME280;13688;53.154;18.136;2022-11-15T02:41:45;101107.23;;;4.06;100.00
25869;BME280;13688;53.154;18.136;2022-11-15T02:47:10;101101.23;;;4.00;100.00
25869;BME280;13688;53.154;18.136;2022-11-15T02:52:32;101096.86;;;3.99;100.00
25869;BME280;13688;53.154;18.136;2022-11-15T02:58:15;101087.15;;;3.98;100.00
25869;BME280;13688;53.154;18.136;2022-11-15T03:03:54;101076.36;;;4.01;100.00
25869;BME280;13688;53.154;18.136;2022-11-15T03:09:30;101082.77;;;3.97;100.00
25869;BME280;13688;53.154;18.136;2022-11-15T03:15:09;101077.44;;;3.97;100.00
25869;BME280;13688;53.154;18.136;2022-11-15T03:20:36;101083.70;;;3.96;100.00
25869;BME280;13688;53.154;18.136;2022-11-15T03:26:01;101076.63;;;3.95;100.00
25869;BME280;13688;53.154;18.136;2022-11-15T03:31:26;101070.51;;;3.93;100.00
25869;BME280;13688;53.154;18.136;2022-11-15T03:37:00;101061.59;;;3.94;100.00
25869;BME280;13688;53.154;18.136;2022-11-15T03:42:30;101050.95;;;3.94;100.00
25869;BME280;13688;53.154;18.136;2022-11-15T03:48:10;101049.11;;;3.96;100.00
25869;BME280;13688;53.154;18.136;2022-11-15T03:53:36;101045.59;;;3.96;100.00
25869;BME280;13688;53.154;18.136;2022-11-15T03:58:58;101041.99;;;3.97;100.00
25869;BME280;13688;53.154;18.136;2022-11-15T04:04:20;101036.00;;;3.92;100.00
25869;BME280;13688;53.154;18.136;2022-11-15T04:09:43;101035.06;;;3.93;100.00
25869;BME280;13688;53.154;18.136;2022-11-15T04:15:20;101031.62;;;3.91;100.00
25869;BME280;13688;53.154;18.136;2022-11-15T04:20:43;101022.44;;;3.98;100.00
25869;BME280;13688;53.154;18.136;2022-11-15T04:26:24;101022.51;;;3.96;100.00
25869;BME280;13688;53.154;18.136;2022-11-15T04:31:47;101015.16;;;4.01;100.00
25869;BME280;13688;53.154;18.136;2022-11-15T04:37:09;101009.84;;;4.01;100.00
25869;BME280;13688;53.154;18.136;2022-11-15T04:42:31;101003.88;;;3.96;100.00
25869;BME280;13688;53.154;18.136;2022-11-15T04:47:55;100997.70;;;3.96;100.00
25869;BME280;13688;53.154;18.136;2022-11-15T04:53:17;101005.45;;;4.00;100.00
25869;BME280;13688;53.154;18.136;2022-11-15T04:58:41;101007.33;;;3.98;100.00
25869;BME280;13688;53.154;18.136;2022-11-15T05:04:06;100995.08;;;3.94;100.00
25869;BME280;13688;53.154;18.136;2022-11-15T05:09:29;100993.36;;;3.93;100.00
25869;BME280;13688;53.154;18.136;2022-11-15T05:14:52;100984.45;;;3.94;100.00
25869;BME280;13688;53.154;18.136;2022-11-15T05:20:14;100970.80;;;4.02;100.00
25869;BME280;13688;53.154;18.136;2022-11-15T05:25:37;100977.05;;;4.01;100.00
25869;BME280;13688;53.154;18.136;2022-11-15T05:31:04;100969.23;;;3.98;100.00
25869;BME280;13688;53.154;18.136;2022-11-15T05:36:36;100968.36;;;3.97;100.00
25869;BME280;13688;53.154;18.136;2022-11-15T05:42:08;100968.28;;;3.99;100.00
25869;BME280;13688;53.154;18.136;2022-11-15T05:47:31;100968.87;;;4.06;100.00
25869;BME280;13688;53.154;18.136;2022-11-15T05:52:55;100966.06;;;4.09;100.00
25869;BME280;13688;53.154;18.136;2022-11-15T05:58:18;100982.30;;;4.02;100.00
25869;BME280;13688;53.154;18.136;2022-11-15T06:03:41;100976.70;;;4.09;100.00
25869;BME280;13688;53.154;18.136;2022-11-15T06:09:03;100978.85;;;4.00;100.00
25869;BME280;13688;53.154;18.136;2022-11-15T06:14:25;100969.07;;;4.01;100.00
25869;BME280;13688;53.154;18.136;2022-11-15T06:19:48;100974.91;;;4.09;100.00
25869;BME280;13688;53.154;18.136;2022-11-15T06:25:10;100971.15;;;4.13;100.00
25869;BME280;13688;53.154;18.136;2022-11-15T06:30:32;100987.11;;;4.13;100.00
25869;BME280;13688;53.154;18.136;2022-11-15T06:35:59;100983.39;;;4.17;100.00
25869;BME280;13688;53.154;18.136;2022-11-15T06:41:24;100986.77;;;4.21;100.00
25869;BME280;13688;53.154;18.136;2022-11-15T06:46:46;100992.24;;;4.18;100.00
25869;BME280;13688;53.154;18.136;2022-11-15T06:52:09;100994.98;;;4.16;100.00
25869;BME280;13688;53.154;18.136;2022-11-15T06:57:31;100988.72;;;4.17;100.00
25869;BME280;13688;53.154;18.136;2022-11-15T07:02:58;100998.11;;;4.24;100.00
25869;BME280;13688;53.154;18.136;2022-11-15T07:08:20;100998.94;;;4.26;100.00
25869;BME280;13688;53.154;18.136;2022-11-15T07:13:43;101000.93;;;4.21;100.00
25869;BME280;13688;53.154;18.136;2022-11-15T07:19:05;101000.85;;;4.23;100.00
25869;BME280;13688;53.154;18.136;2022-11-15T07:24:27;101007.27;;;4.19;100.00
25869;BME280;13688;53.154;18.136;2022-11-15T07:29:50;101003.44;;;4.24;100.00
25869;BME280;13688;53.154;18.136;2022-11-15T07:35:13;101004.33;;;4.25;100.00
25869;BME280;13688;53.154;18.136;2022-11-15T07:40:36;101001.44;;;4.29;100.00
25869;BME280;13688;53.154;18.136;2022-11-15T07:45:58;101000.06;;;4.40;100.00
25869;BME280;13688;53.154;18.136;2022-11-15T07:51:22;100991.38;;;4.36;100.00
25869;BME280;13688;53.154;18.136;2022-11-15T07:56:44;100978.92;;;4.37;100.00
25869;BME280;13688;53.154;18.136;2022-11-15T08:02:08;100971.22;;;4.30;100.00
25869;BME280;13688;53.154;18.136;2022-11-15T08:07:34;100975.41;;;4.36;100.00
25869;BME280;13688;53.154;18.136;2022-11-15T08:13:08;100970.59;;;4.25;100.00
25869;BME280;13688;53.154;18.136;2022-11-15T08:18:27;100974.90;;;4.28;100.00
25869;BME280;13688;53.154;18.136;2022-11-15T08:23:50;100976.39;;;4.34;100.00
25869;BME280;13688;53.154;18.136;2022-11-15T08:29:12;100969.92;;;4.39;100.00
25869;BME280;13688;53.154;18.136;2022-11-15T08:34:34;100969.14;;;4.37;100.00
25869;BME280;13688;53.154;18.136;2022-11-15T08:39:57;100970.26;;;4.50;100.00
25869;BME280;13688;53.154;18.136;2022-11-15T08:45:20;100970.41;;;4.47;100.00
25869;BME280;13688;53.154;18.136;2022-11-15T08:50:42;100959.61;;;4.50;100.00
25869;BME280;13688;53.154;18.136;2022-11-15T08:56:08;100957.72;;;4.52;100.00
25869;BME280;13688;53.154;18.136;2022-11-15T09:01:30;100953.70;;;4.44;100.00
25869;BME280;13688;53.154;18.136;2022-11-15T09:06:53;100957.52;;;4.57;100.00
25869;BME280;13688;53.154;18.136;2022-11-15T09:12:16;100951.45;;;4.53;100.00
25869;BME280;13688;53.154;18.136;2022-11-15T09:17:38;100947.94;;;4.53;100.00
25869;BME280;13688;53.154;18.136;2022-11-15T09:23:01;100950.78;;;4.31;100.00
25869;BME280;13688;53.154;18.136;2022-11-15T09:28:24;100928.89;;;4.43;100.00
25869;BME280;13688;53.154;18.136;2022-11-15T09:33:51;100938.55;;;4.63;100.00
25869;BME280;13688;53.154;18.136;2022-11-15T09:39:14;100934.81;;;4.67;100.00
25869;BME280;13688;53.154;18.136;2022-11-15T09:45:09;100932.84;;;4.71;100.00
25869;BME280;13688;53.154;18.136;2022-11-15T09:50:48;100921.91;;;4.94;100.00
25869;BME280;13688;53.154;18.136;2022-11-15T09:56:14;100921.35;;;4.87;100.00
25869;BME280;13688;53.154;18.136;2022-11-15T10:01:44;100905.53;;;4.84;100.00
25869;BME280;13688;53.154;18.136;2022-11-15T10:12:56;100897.13;;;4.92;100.00
25869;BME280;13688;53.154;18.136;2022-11-15T10:18:24;100905.92;;;4.94;100.00
25869;BME280;13688;53.154;18.136;2022-11-15T10:23:53;100895.35;;;4.93;100.00
25869;BME280;13688;53.154;18.136;2022-11-15T10:29:19;100890.63;;;4.80;100.00
25869;BME280;13688;53.154;18.136;2022-11-15T10:34:41;100890.87;;;4.93;100.00
25869;BME280;13688;53.154;18.136;2022-11-15T10:40:22;100890.94;;;4.92;100.00
25869;BME280;13688;53.154;18.136;2022-11-15T10:45:39;100885.55;;;4.93;100.00
25869;BME280;13688;53.154;18.136;2022-11-15T10:51:02;100876.61;;;4.94;100.00
25869;BME280;13688;53.154;18.136;2022-11-15T10:56:29;100874.81;;;4.95;100.00
25869;BME280;13688;53.154;18.136;2022-11-15T11:01:52;100874.17;;;4.89;100.00
25869;BME280;13688;53.154;18.136;2022-11-15T11:07:20;100882.63;;;4.98;100.00
25869;BME280;13688;53.154;18.136;2022-11-15T11:12:41;100876.53;;;4.96;100.00
25869;BME280;13688;53.154;18.136;2022-11-15T11:18:21;100881.22;;;4.91;100.00
25869;BME280;13688;53.154;18.136;2022-11-15T11:24:19;100879.50;;;4.89;100.00
25869;BME280;13688;53.154;18.136;2022-11-15T11:35:29;100859.12;;;5.06;100.00
25869;BME280;13688;53.154;18.136;2022-11-15T11:41:00;100860.58;;;5.11;100.00
25869;BME280;13688;53.154;18.136;2022-11-15T11:52:11;100849.16;;;4.92;100.00
25869;BME280;13688;53.154;18.136;2022-11-15T11:57:49;100846.73;;;5.05;100.00
25869;BME280;13688;53.154;18.136;2022-11-15T12:03:43;100840.46;;;5.06;100.00
25869;BME280;13688;53.154;18.136;2022-11-15T12:15:01;100834.44;;;5.02;100.00
25869;BME280;13688;53.154;18.136;2022-11-15T12:20:32;100831.52;;;5.07;100.00
25869;BME280;13688;53.154;18.136;2022-11-15T12:25:57;100829.43;;;4.96;100.00
25869;BME280;13688;53.154;18.136;2022-11-15T12:49:02;100815.44;;;5.08;100.00
25869;BME280;13688;53.154;18.136;2022-11-15T13:05:53;100810.00;;;4.94;100.00
25869;BME280;13688;53.154;18.136;2022-11-15T13:11:48;100809.37;;;4.89;100.00
25869;BME280;13688;53.154;18.136;2022-11-15T13:17:36;100801.77;;;4.81;100.00
25869;BME280;13688;53.154;18.136;2022-11-15T13:23:17;100810.23;;;4.89;100.00
25869;BME280;13688;53.154;18.136;2022-11-15T13:28:44;100800.66;;;5.03;100.00
25869;BME280;13688;53.154;18.136;2022-11-15T13:34:21;100804.47;;;5.14;100.00
25869;BME280;13688;53.154;18.136;2022-11-15T13:39:47;100804.29;;;5.17;100.00
25869;BME280;13688;53.154;18.136;2022-11-15T13:45:13;100797.42;;;5.13;100.00
25869;BME280;13688;53.154;18.136;2022-11-15T13:50:38;100798.59;;;5.08;100.00
25869;BME280;13688;53.154;18.136;2022-11-15T13:56:03;100792.89;;;4.98;100.00
25869;BME280;13688;53.154;18.136;2022-11-15T14:01:28;100787.56;;;4.98;100.00
25869;BME280;13688;53.154;18.136;2022-11-15T14:06:54;100789.14;;;5.02;100.00
25869;BME280;13688;53.154;18.136;2022-11-15T14:12:31;100779.75;;;4.95;100.00
25869;BME280;13688;53.154;18.136;2022-11-15T14:17:54;100774.06;;;5.01;100.00
25869;BME280;13688;53.154;18.136;2022-11-15T14:23:25;100771.49;;;5.00;100.00
25869;BME280;13688;53.154;18.136;2022-11-15T14:28:48;100765.80;;;4.90;100.00
25869;BME280;13688;53.154;18.136;2022-11-15T14:34:10;100767.09;;;4.83;100.00
25869;BME280;13688;53.154;18.136;2022-11-15T14:39:33;100752.96;;;4.81;100.00
25869;BME280;13688;53.154;18.136;2022-11-15T14:44:55;100752.19;;;4.79;100.00
25869;BME280;13688;53.154;18.136;2022-11-15T14:50:20;100742.48;;;4.78;100.00
25869;BME280;13688;53.154;18.136;2022-11-15T14:55:44;100741.80;;;4.74;100.00
25869;BME280;13688;53.154;18.136;2022-11-15T15:06:39;100743.74;;;4.71;100.00
25869;BME280;13688;53.154;18.136;2022-11-15T15:12:02;100735.84;;;4.69;100.00
25869;BME280;13688;53.154;18.136;2022-11-15T15:17:29;100750.27;;;4.65;100.00
25869;BME280;13688;53.154;18.136;2022-11-15T15:22:51;100749.33;;;4.66;100.00
25869;BME280;13688;53.154;18.136;2022-11-15T15:28:14;100751.44;;;4.59;100.00
25869;BME280;13688;53.154;18.136;2022-11-15T15:33:38;100746.20;;;4.58;100.00
25869;BME280;13688;53.154;18.136;2022-11-15T15:39:01;100756.55;;;4.64;100.00
25869;BME280;13688;53.154;18.136;2022-11-15T15:44:25;100745.72;;;4.67;100.00
25869;BME280;13688;53.154;18.136;2022-11-15T15:49:48;100745.34;;;4.57;100.00
25869;BME280;13688;53.154;18.136;2022-11-15T15:55:10;100733.06;;;4.55;100.00
25869;BME280;13688;53.154;18.136;2022-11-15T16:00:34;100738.44;;;4.53;100.00
25869;BME280;13688;53.154;18.136;2022-11-15T16:05:56;100738.52;;;4.52;100.00
25869;BME280;13688;53.154;18.136;2022-11-15T16:11:20;100728.13;;;4.47;100.00
25869;BME280;13688;53.154;18.136;2022-11-15T16:16:43;100723.49;;;4.51;100.00
25869;BME280;13688;53.154;18.136;2022-11-15T16:22:05;100726.16;;;4.51;100.00
25869;BME280;13688;53.154;18.136;2022-11-15T16:27:28;100712.24;;;4.46;100.00
25869;BME280;13688;53.154;18.136;2022-11-15T16:32:52;100715.77;;;4.46;100.00
25869;BME280;13688;53.154;18.136;2022-11-15T16:38:16;100718.08;;;4.52;100.00
25869;BME280;13688;53.154;18.136;2022-11-15T16:43:40;100721.55;;;4.54;100.00
25869;BME280;13688;53.154;18.136;2022-11-15T16:49:03;100728.42;;;4.58;100.00
25869;BME280;13688;53.154;18.136;2022-11-15T16:54:29;100728.42;;;4.58;100.00
25869;BME280;13688;53.154;18.136;2022-11-15T16:59:52;100723.27;;;4.55;100.00
25869;BME280;13688;53.154;18.136;2022-11-15T17:05:15;100732.03;;;4.57;100.00
25869;BME280;13688;53.154;18.136;2022-11-15T17:10:39;100724.90;;;4.58;100.00
25869;BME280;13688;53.154;18.136;2022-11-15T17:16:12;100720.52;;;4.57;100.00
25869;BME280;13688;53.154;18.136;2022-11-15T17:21:35;100729.45;;;4.56;100.00
25869;BME280;13688;53.154;18.136;2022-11-15T17:26:58;100725.76;;;4.58;100.00
25869;BME280;13688;53.154;18.136;2022-11-15T17:32:21;100728.16;;;4.63;100.00
25869;BME280;13688;53.154;18.136;2022-11-15T17:37:44;100723.87;;;4.60;100.00
25869;BME280;13688;53.154;18.136;2022-11-15T17:43:06;100726.45;;;4.62;100.00
25869;BME280;13688;53.154;18.136;2022-11-15T17:48:28;100723.64;;;4.65;100.00
25869;BME280;13688;53.154;18.136;2022-11-15T17:53:53;100718.41;;;4.64;100.00
25869;BME280;13688;53.154;18.136;2022-11-15T17:59:17;100723.87;;;4.60;100.00
25869;BME280;13688;53.154;18.136;2022-11-15T18:04:40;100719.58;;;4.58;100.00
25869;BME280;13688;53.154;18.136;2022-11-15T18:10:02;100721.12;;;4.62;100.00
25869;BME280;13688;53.154;18.136;2022-11-15T18:15:25;100724.95;;;4.74;100.00
25869;BME280;13688;53.154;18.136;2022-11-15T18:20:47;100719.77;;;4.71;100.00
25869;BME280;13688;53.154;18.136;2022-11-15T18:26:22;100712.36;;;4.60;100.00
25869;BME280;13688;53.154;18.136;2022-11-15T18:31:45;100691.45;;;4.52;100.00
25869;BME280;13688;53.154;18.136;2022-11-15T18:37:09;100691.45;;;4.52;100.00
25869;BME280;13688;53.154;18.136;2022-11-15T18:42:31;100685.76;;;4.43;100.00
25869;BME280;13688;53.154;18.136;2022-11-15T18:47:53;100684.81;;;4.44;100.00
25869;BME280;13688;53.154;18.136;2022-11-15T18:53:15;100684.30;;;4.37;100.00
25869;BME280;13688;53.154;18.136;2022-11-15T18:58:40;100687.05;;;4.36;100.00
25869;BME280;13688;53.154;18.136;2022-11-15T19:04:05;100691.42;;;4.37;100.00
25869;BME280;13688;53.154;18.136;2022-11-15T19:09:32;100685.25;;;4.36;100.00
25869;BME280;13688;53.154;18.136;2022-11-15T19:14:56;100682.72;;;4.33;100.00
25869;BME280;13688;53.154;18.136;2022-11-15T19:20:20;100690.80;;;4.31;100.00
25869;BME280;13688;53.154;18.136;2022-11-15T19:25:42;100687.27;;;4.31;100.00
25869;BME280;13688;53.154;18.136;2022-11-15T19:31:14;100698.77;;;4.31;100.00
25869;BME280;13688;53.154;18.136;2022-11-15T19:36:48;100696.20;;;4.30;100.00
25869;BME280;13688;53.154;18.136;2022-11-15T19:42:12;100701.35;;;4.33;100.00
25869;BME280;13688;53.154;18.136;2022-11-15T19:47:36;100695.03;;;4.36;100.00
25869;BME280;13688;53.154;18.136;2022-11-15T19:52:59;100682.89;;;4.30;100.00
25869;BME280;13688;53.154;18.136;2022-11-15T19:58:22;100682.03;;;4.29;100.00
25869;BME280;13688;53.154;18.136;2022-11-15T20:03:45;100682.03;;;4.29;100.00
25869;BME280;13688;53.154;18.136;2022-11-15T20:09:12;100675.68;;;4.32;100.00
25869;BME280;13688;53.154;18.136;2022-11-15T20:14:34;100690.02;;;4.29;100.00
25869;BME280;13688;53.154;18.136;2022-11-15T20:19:57;100691.73;;;4.30;100.00
25869;BME280;13688;53.154;18.136;2022-11-15T20:25:21;100688.13;;;4.31;100.00
25869;BME280;13688;53.154;18.136;2022-11-15T20:30:50;100695.25;;;4.31;100.00
25869;BME280;13688;53.154;18.136;2022-11-15T20:36:14;100687.61;;;4.25;100.00
25869;BME280;13688;53.154;18.136;2022-11-15T20:41:37;100686.89;;;4.21;100.00
25869;BME280;13688;53.154;18.136;2022-11-15T20:47:00;100692.21;;;4.21;100.00
25869;BME280;13688;53.154;18.136;2022-11-15T20:52:23;100693.33;;;4.17;100.00
25869;BME280;13688;53.154;18.136;2022-11-15T20:57:48;100684.70;;;4.12;100.00
25869;BME280;13688;53.154;18.136;2022-11-15T21:03:12;100679.55;;;4.09;100.00
25869;BME280;13688;53.154;18.136;2022-11-15T21:08:36;100681.35;;;4.09;100.00
25869;BME280;13688;53.154;18.136;2022-11-15T21:14:17;100676.03;;;4.09;100.00
25869;BME280;13688;53.154;18.136;2022-11-15T21:19:40;100686.76;;;4.07;100.00
25869;BME280;13688;53.154;18.136;2022-11-15T21:25:02;100671.66;;;4.08;100.00
25869;BME280;13688;53.154;18.136;2022-11-15T21:30:24;100653.89;;;4.08;100.00
25869;BME280;13688;53.154;18.136;2022-11-15T21:35:47;100652.00;;;4.10;100.00
25869;BME280;13688;53.154;18.136;2022-11-15T21:41:10;100655.13;;;4.18;100.00
25869;BME280;13688;53.154;18.136;2022-11-15T21:46:33;100658.64;;;4.19;100.00
25869;BME280;13688;53.154;18.136;2022-11-15T21:51:56;100650.58;;;4.20;100.00
25869;BME280;13688;53.154;18.136;2022-11-15T21:57:18;100642.51;;;4.22;100.00
25869;BME280;13688;53.154;18.136;2022-11-15T22:02:41;100638.91;;;4.23;100.00
25869;BME280;13688;53.154;18.136;2022-11-15T22:08:03;100646.75;;;4.26;100.00
25869;BME280;13688;53.154;18.136;2022-11-15T22:13:26;100641.34;;;4.27;100.00
25869;BME280;13688;53.154;18.136;2022-11-15T22:18:48;100642.20;;;4.28;100.00
25869;BME280;13688;53.154;18.136;2022-11-15T22:24:11;100635.06;;;4.28;100.00
25869;BME280;13688;53.154;18.136;2022-11-15T22:29:34;100630.61;;;4.29;100.00
25869;BME280;13688;53.154;18.136;2022-11-15T22:34:56;100622.62;;;4.29;100.00
25869;BME280;13688;53.154;18.136;2022-11-15T22:40:19;100613.69;;;4.30;100.00
25869;BME280;13688;53.154;18.136;2022-11-15T22:51:14;100626.77;;;4.35;100.00
25869;BME280;13688;53.154;18.136;2022-11-15T22:56:37;100632.95;;;4.35;100.00
25869;BME280;13688;53.154;18.136;2022-11-15T23:02:01;100616.03;;;4.36;100.00
25869;BME280;13688;53.154;18.136;2022-11-15T23:07:24;100613.37;;;4.36;100.00
25869;BME280;13688;53.154;18.136;2022-11-15T23:12:47;100609.67;;;4.39;100.00
25869;BME280;13688;53.154;18.136;2022-11-15T23:18:28;100620.23;;;4.40;100.00
25869;BME280;13688;53.154;18.136;2022-11-15T23:23:52;100613.20;;;4.39;100.00
25869;BME280;13688;53.154;18.136;2022-11-15T23:29:17;100599.89;;;4.39;100.00
25869;BME280;13688;53.154;18.136;2022-11-15T23:34:43;100603.50;;;4.38;100.00
25869;BME280;13688;53.154;18.136;2022-11-15T23:40:07;100606.33;;;4.35;100.00
25869;BME280;13688;53.154;18.136;2022-11-15T23:45:29;100599.34;;;4.33;100.00
25869;BME280;13688;53.154;18.136;2022-11-15T23:50:53;100598.34;;;4.35;100.00
25869;BME280;13688;53.154;18.136;2022-11-15T23:56:18;100595.83;;;4.32;100.00
